Flight Track Log - Related Links

Times and Time Zones

All times are in EDT time to prevent confusion due to time zone crossing. See the CTL18 flight status page for this flight to view local times or setup timezone preferences in your user account.

Time Position Orientation Groundspeed Altitude Reporting Facility
EDT Latitude Longitude Course Direction KTS MPH feet Rate Location/Type
Mon 07:02:16 PM 42.6644 -83.4381 268° West 124 143 1,300  Level Cleveland Center
Mon 07:02:47 PM 42.6639 -83.4633 268° West 120 138 1,900 1,161 Climbing Cleveland Center
Mon 07:04:00 PM 42.6995 -83.4309 34° Northeast  Level FlightAware Approximate
Mon 07:11:00 PM 42.9281 -83.3975 321° Northwest  Level FlightAware Approximate
Mon 07:12:00 PM 42.9555 -83.4277 321° Northwest  Level FlightAware Approximate
Mon 07:13:00 PM 42.9829 -83.4578 321° Northwest  Level FlightAware Approximate
Mon 07:14:00 PM 43.0103 -83.4880 321° Northwest  Level FlightAware Approximate
Mon 07:15:00 PM 43.0377 -83.5182 321° Northwest  Level FlightAware Approximate
Mon 07:16:00 PM 43.0650 -83.5485 321° Northwest  Level FlightAware Approximate
Mon 07:17:00 PM 43.0924 -83.5787 321° Northwest  Level FlightAware Approximate
Mon 07:18:00 PM 43.1198 -83.6090 321° Northwest  Level FlightAware Approximate
Mon 07:19:00 PM 43.1471 -83.6394 321° Northwest  Level FlightAware Approximate
Mon 07:20:00 PM 43.1744 -83.6697 321° Northwest  Level FlightAware Approximate
Mon 07:21:00 PM 43.2018 -83.7001 321° Northwest  Level FlightAware Approximate
Mon 07:22:00 PM 43.2286 -83.7312 318° Northwest  Level FlightAware Approximate
Mon 07:23:00 PM 43.2549 -83.7633 318° Northwest  Level FlightAware Approximate
Mon 07:24:00 PM 43.2812 -83.7954 318° Northwest  Level FlightAware Approximate
Mon 07:25:00 PM 43.3075 -83.8276 318° Northwest  Level FlightAware Approximate
Mon 07:26:00 PM 43.3338 -83.8597 318° Northwest  Level FlightAware Approximate
Mon 07:27:00 PM 43.3601 -83.8919 318° Northwest  Level FlightAware Approximate
Mon 07:28:00 PM 43.3880 -83.9213 324° Northwest  Level FlightAware Approximate
Mon 07:29:00 PM 43.4165 -83.9497 324° Northwest  Level FlightAware Approximate
Mon 07:30:00 PM 43.4449 -83.9782 324° Northwest  Level FlightAware Approximate
Mon 07:31:00 PM 43.4734 -84.0067 324° Northwest  Level FlightAware Approximate

Login

Don't have an account? Register now (free) for customized features, flight alerts, and more!